createdAt,value
2023-02-12T00:00:53.086Z,970.7
2023-02-12T00:01:53.064Z,970.68
2023-02-12T00:02:53.049Z,970.64
2023-02-12T00:03:53.129Z,970.72
2023-02-12T00:04:53.012Z,970.72
2023-02-12T00:05:53.246Z,970.7
2023-02-12T00:06:52.977Z,970.71
2023-02-12T00:07:52.955Z,970.73
2023-02-12T00:08:52.956Z,970.77
2023-02-12T00:09:52.923Z,970.73
2023-02-12T00:10:52.901Z,970.74
2023-02-12T00:11:52.901Z,970.79
2023-02-12T00:12:52.869Z,970.76
2023-02-12T00:13:52.866Z,970.81
2023-02-12T00:14:52.832Z,970.74
2023-02-12T00:15:53.062Z,970.75
2023-02-12T00:16:52.813Z,970.75
2023-02-12T00:17:52.776Z,970.69
2023-02-12T00:18:52.757Z,970.69
2023-02-12T00:19:52.742Z,970.66
2023-02-12T00:20:52.724Z,970.73
2023-02-12T00:21:52.731Z,970.74
2023-02-12T00:22:52.686Z,970.69
2023-02-12T00:23:52.693Z,970.74
2023-02-12T00:24:52.651Z,970.7
2023-02-12T00:25:52.856Z,970.7
2023-02-12T00:26:52.615Z,970.72
2023-02-12T00:27:52.601Z,970.75
2023-02-12T00:28:52.580Z,970.8
2023-02-12T00:29:52.573Z,970.79
2023-02-12T00:30:52.639Z,970.81
2023-02-12T00:31:52.570Z,970.77
2023-02-12T00:32:52.507Z,970.72
2023-02-12T00:33:52.501Z,970.71
2023-02-12T00:34:53.410Z,970.68
2023-02-12T00:35:53.695Z,970.67
2023-02-12T00:36:53.373Z,970.61
2023-02-12T00:37:53.383Z,970.67
2023-02-12T00:38:53.353Z,970.6
2023-02-12T00:39:53.324Z,970.63
2023-02-12T00:40:53.301Z,970.63
2023-02-12T00:41:53.285Z,970.63
2023-02-12T00:42:53.299Z,970.6
2023-02-12T00:43:53.250Z,970.63
2023-02-12T00:44:53.237Z,970.61
2023-02-12T00:45:53.562Z,970.61
2023-02-12T00:46:53.198Z,970.59
2023-02-12T00:47:53.180Z,970.6
2023-02-12T00:48:53.179Z,970.64
2023-02-12T00:49:53.145Z,970.6
2023-02-12T00:50:53.124Z,970.63
2023-02-12T00:51:53.108Z,970.66
2023-02-12T00:52:53.104Z,970.66
2023-02-12T00:53:53.109Z,970.71
2023-02-12T00:54:53.052Z,970.67
2023-02-12T00:55:53.568Z,970.71
2023-02-12T00:56:53.019Z,970.71
2023-02-12T00:57:53.002Z,970.7
2023-02-12T00:58:52.982Z,970.67
2023-02-12T00:59:52.988Z,970.69
2023-02-12T01:00:52.953Z,970.7
2023-02-12T01:01:52.953Z,970.72
2023-02-12T01:02:52.914Z,970.74
2023-02-12T01:03:52.897Z,970.74
2023-02-12T01:04:52.897Z,970.7
2023-02-12T01:05:53.247Z,970.68
2023-02-12T01:06:52.844Z,970.73
2023-02-12T01:07:52.829Z,970.69
2023-02-12T01:08:52.815Z,970.75
2023-02-12T01:09:52.816Z,970.76
2023-02-12T01:10:52.777Z,970.72
2023-02-12T01:11:52.755Z,970.7
2023-02-12T01:12:52.738Z,970.72
2023-02-12T01:13:52.728Z,970.71
2023-02-12T01:14:52.704Z,970.72
2023-02-12T01:15:52.999Z,970.73
2023-02-12T01:16:52.671Z,970.71
2023-02-12T01:17:52.652Z,970.67
2023-02-12T01:18:55.259Z,970.68
2023-02-12T01:19:52.615Z,970.7
2023-02-12T01:20:52.598Z,970.73
2023-02-12T01:21:52.580Z,970.79
2023-02-12T01:22:52.578Z,970.83
2023-02-12T01:23:52.551Z,970.84
2023-02-12T01:24:52.528Z,970.89
2023-02-12T01:25:52.755Z,970.85
2023-02-12T01:26:52.494Z,970.88
2023-02-12T01:27:52.477Z,970.86
2023-02-12T01:28:52.457Z,970.88
2023-02-12T01:29:52.438Z,970.92
2023-02-12T01:30:52.519Z,970.87
2023-02-12T01:31:52.528Z,970.92
2023-02-12T01:32:52.398Z,970.9
2023-02-12T01:33:52.380Z,970.91
2023-02-12T01:34:52.352Z,970.94
2023-02-12T01:35:52.510Z,970.93
2023-02-12T01:36:52.326Z,970.94
2023-02-12T01:37:52.298Z,970.95
2023-02-12T01:38:52.305Z,970.98
2023-02-12T01:39:52.265Z,970.92
2023-02-12T01:40:52.246Z,970.94
2023-02-12T01:41:52.305Z,970.87
2023-02-12T01:42:52.211Z,970.9
2023-02-12T01:43:52.198Z,970.88
2023-02-12T01:44:52.172Z,970.87
2023-02-12T01:45:52.197Z,970.89
2023-02-12T01:46:52.244Z,970.87
2023-02-12T01:47:52.118Z,970.86
2023-02-12T01:48:52.103Z,970.89
2023-02-12T01:49:52.110Z,970.88
2023-02-12T01:50:52.069Z,970.91
2023-02-12T01:51:52.050Z,970.88
2023-02-12T01:52:52.032Z,970.87
2023-02-12T01:53:52.015Z,970.87
2023-02-12T01:54:52.000Z,970.86
2023-02-12T01:55:52.005Z,970.85
2023-02-12T01:56:51.966Z,970.8
2023-02-12T01:57:51.972Z,970.8
2023-02-12T01:58:51.927Z,970.83
2023-02-12T01:59:51.908Z,970.83
2023-02-12T02:00:51.892Z,970.79
2023-02-12T02:01:51.943Z,970.77
2023-02-12T02:02:51.892Z,970.74
2023-02-12T02:03:51.844Z,970.71
2023-02-12T02:04:51.829Z,970.74
2023-02-12T02:05:51.815Z,970.79
2023-02-12T02:06:51.800Z,970.78
2023-02-12T02:07:51.768Z,970.8
2023-02-12T02:08:51.750Z,970.78
2023-02-12T02:09:51.731Z,970.77
2023-02-12T02:10:51.713Z,970.83
2023-02-12T02:11:51.694Z,970.81
2023-02-12T02:12:51.676Z,970.86
2023-02-12T02:13:51.686Z,970.9
2023-02-12T02:14:51.639Z,970.9
2023-02-12T02:15:51.720Z,970.91
2023-02-12T02:16:51.610Z,970.9
2023-02-12T02:17:51.586Z,970.87
2023-02-12T02:18:51.569Z,970.89
2023-02-12T02:19:51.556Z,970.93
2023-02-12T02:20:51.532Z,970.91
2023-02-12T02:21:51.519Z,970.88
2023-02-12T02:22:51.738Z,970.88
2023-02-12T02:23:51.724Z,970.91
2023-02-12T02:24:51.701Z,970.91
2023-02-12T02:25:51.684Z,970.91
2023-02-12T02:26:51.676Z,970.92
2023-02-12T02:27:51.652Z,970.92
2023-02-12T02:28:51.629Z,970.91
2023-02-12T02:29:51.616Z,970.91
2023-02-12T02:30:51.649Z,970.89
2023-02-12T02:31:51.656Z,970.9
2023-02-12T02:32:51.561Z,970.87
2023-02-12T02:33:52.446Z,970.88
2023-02-12T02:34:52.427Z,970.85
2023-02-12T02:35:52.455Z,970.88
2023-02-12T02:37:00.377Z,970.89
2023-02-12T02:37:52.373Z,970.91
2023-02-12T02:38:52.357Z,970.91
2023-02-12T02:39:52.344Z,970.92
2023-02-12T02:40:52.321Z,970.91
2023-02-12T02:41:52.305Z,970.95
2023-02-12T02:42:52.287Z,970.98
2023-02-12T02:43:52.284Z,970.95
2023-02-12T02:44:52.262Z,970.93
2023-02-12T02:45:52.238Z,970.95
2023-02-12T02:46:52.246Z,970.98
2023-02-12T02:47:52.235Z,971
2023-02-12T02:48:52.180Z,971.02
2023-02-12T02:49:52.168Z,971.02
2023-02-12T02:50:52.151Z,971
2023-02-12T02:51:52.138Z,971.05
2023-02-12T02:52:52.111Z,970.99
2023-02-12T02:53:52.091Z,971.01
2023-02-12T02:54:52.074Z,970.98
2023-02-12T02:55:52.166Z,970.95
2023-02-12T02:56:52.040Z,970.94
2023-02-12T02:57:52.022Z,970.97
2023-02-12T02:58:52.005Z,970.93
2023-02-12T02:59:51.986Z,970.98
2023-02-12T03:00:52.017Z,970.98
2023-02-12T03:01:51.951Z,971
2023-02-12T03:02:52.002Z,971
2023-02-12T03:03:51.944Z,971.01
2023-02-12T03:04:51.903Z,971
2023-02-12T03:05:51.879Z,971.01
2023-02-12T03:06:51.864Z,971.02
2023-02-12T03:07:51.848Z,971.03
2023-02-12T03:08:51.830Z,971.02
2023-02-12T03:09:51.810Z,971.08
2023-02-12T03:10:51.797Z,971.07
2023-02-12T03:11:51.786Z,971.08
2023-02-12T03:12:51.758Z,971.05
2023-02-12T03:13:51.746Z,971.09
2023-02-12T03:14:51.725Z,971.07
2023-02-12T03:15:51.703Z,971.06
2023-02-12T03:16:51.691Z,971.09
2023-02-12T03:17:51.716Z,971.09
2023-02-12T03:18:51.656Z,971.09
2023-02-12T03:19:51.666Z,971.08
2023-02-12T03:20:51.620Z,971.13
2023-02-12T03:21:51.601Z,971.12
2023-02-12T03:22:51.601Z,971.13
2023-02-12T03:23:51.569Z,971.11
2023-02-12T03:24:51.567Z,971.11
2023-02-12T03:25:51.532Z,971.08
2023-02-12T03:26:51.516Z,971.12
2023-02-12T03:27:51.497Z,971.08
2023-02-12T03:28:51.498Z,971.08
2023-02-12T03:29:51.469Z,971.08
2023-02-12T03:30:51.514Z,971.1
2023-02-12T03:31:51.479Z,971.06
2023-02-12T03:32:51.420Z,971.14
2023-02-12T03:50:03.829Z,971.19
2023-02-12T03:51:03.792Z,971.21
2023-02-12T03:52:03.753Z,971.21
2023-02-12T03:53:03.736Z,971.22
2023-02-12T03:54:03.710Z,971.18
2023-02-12T03:55:03.693Z,971.2
2023-02-12T03:56:03.687Z,971.2
2023-02-12T03:57:03.655Z,971.22
2023-02-12T03:58:03.636Z,971.15
2023-02-12T03:59:03.614Z,971.17
2023-02-12T04:00:03.614Z,971.22
2023-02-12T04:01:03.678Z,971.22
2023-02-12T04:02:03.635Z,971.21
2023-02-12T04:03:03.536Z,971.24
2023-02-12T04:04:03.537Z,971.22
2023-02-12T04:05:03.496Z,971.17
2023-02-12T04:06:03.514Z,971.18
2023-02-12T04:07:03.460Z,971.2
2023-02-12T04:08:03.440Z,971.15
2023-02-12T04:09:03.423Z,971.17
2023-02-12T04:10:03.401Z,971.2
2023-02-12T04:11:03.383Z,971.18
2023-02-12T04:12:03.364Z,971.2
2023-02-12T04:13:03.351Z,971.18
2023-02-12T04:14:03.329Z,971.19
2023-02-12T04:15:03.311Z,971.22
2023-02-12T04:16:03.292Z,971.25
2023-02-12T04:17:03.351Z,971.28
2023-02-12T04:18:03.254Z,971.33
2023-02-12T04:19:03.240Z,971.29
2023-02-12T04:20:03.219Z,971.31
2023-02-12T04:21:03.205Z,971.27
2023-02-12T04:22:03.214Z,971.32
2023-02-12T04:23:03.165Z,971.32
2023-02-12T04:24:03.149Z,971.27
2023-02-12T04:25:03.136Z,971.29
2023-02-12T04:26:03.108Z,971.32
2023-02-12T04:27:03.094Z,971.3
2023-02-12T04:28:03.142Z,971.29
2023-02-12T04:29:03.065Z,971.32
2023-02-12T04:30:03.056Z,971.31
2023-02-12T04:31:03.106Z,971.29
2023-02-12T04:32:03.009Z,971.34
2023-02-12T04:33:03.000Z,971.34
2023-02-12T04:34:02.972Z,971.34
2023-02-12T04:35:02.955Z,971.35
2023-02-12T04:36:02.943Z,971.33
2023-02-12T04:37:02.924Z,971.38
2023-02-12T04:38:03.157Z,971.37
2023-02-12T04:39:03.084Z,971.37
2023-02-12T04:40:03.084Z,971.39
2023-02-12T04:41:03.056Z,971.37
2023-02-12T04:42:03.059Z,971.38
2023-02-12T04:43:03.011Z,971.34
2023-02-12T04:44:02.999Z,971.41
2023-02-12T04:45:02.984Z,971.4
2023-02-12T04:46:02.993Z,971.37
2023-02-12T04:47:02.943Z,971.38
2023-02-12T04:48:02.933Z,971.38
2023-02-12T04:49:02.911Z,971.43
2023-02-12T04:50:02.905Z,971.38
2023-02-12T04:51:02.876Z,971.4
2023-02-12T04:52:02.855Z,971.39
2023-02-12T04:53:02.836Z,971.38
2023-02-12T04:54:03.813Z,971.39
2023-02-12T04:55:03.770Z,971.28
2023-02-12T04:56:04.076Z,971.28
2023-02-12T04:57:04.053Z,971.35
2023-02-12T04:58:04.033Z,971.33
2023-02-12T04:59:04.010Z,971.29
2023-02-12T05:00:03.993Z,971.29
2023-02-12T05:01:04.011Z,971.32
2023-02-12T05:02:03.962Z,971.3
2023-02-12T05:03:03.941Z,971.32
2023-02-12T05:04:03.925Z,971.35
2023-02-12T05:05:03.980Z,971.29
2023-02-12T05:06:03.889Z,971.31
2023-02-12T05:07:03.870Z,971.3
2023-02-12T05:08:03.852Z,971.27
2023-02-12T05:09:03.848Z,971.31
2023-02-12T05:10:03.845Z,971.29
2023-02-12T05:11:03.800Z,971.3
2023-02-12T05:12:03.783Z,971.25
2023-02-12T05:13:03.765Z,971.25
2023-02-12T05:14:04.417Z,971.3
2023-02-12T05:15:04.397Z,971.29
2023-02-12T05:16:04.480Z,971.26
2023-02-12T05:17:04.360Z,971.3
2023-02-12T05:18:04.352Z,971.34
2023-02-12T05:19:04.334Z,971.32
2023-02-12T05:20:04.310Z,971.35
2023-02-12T05:21:04.301Z,971.34
2023-02-12T05:22:04.277Z,971.34
2023-02-12T05:23:04.256Z,971.37
2023-02-12T05:24:04.240Z,971.37
2023-02-12T05:25:04.221Z,971.43
2023-02-12T05:26:04.314Z,971.42
2023-02-12T05:27:04.188Z,971.44
2023-02-12T05:28:04.184Z,971.41
2023-02-12T05:29:04.152Z,971.41
2023-02-12T05:30:04.136Z,971.46
2023-02-12T05:31:04.249Z,971.48
2023-02-12T05:32:04.240Z,971.47
2023-02-12T05:33:04.089Z,971.46
2023-02-12T05:34:04.070Z,971.42
2023-02-12T05:35:04.071Z,971.46
2023-02-12T05:36:04.053Z,971.44
2023-02-12T05:37:04.024Z,971.46
2023-02-12T05:38:03.995Z,971.5
2023-02-12T05:39:03.981Z,971.47
2023-02-12T05:40:03.958Z,971.47
2023-02-12T05:41:03.941Z,971.46
2023-02-12T05:42:03.954Z,971.52
2023-02-12T05:43:03.907Z,971.52
2023-02-12T05:44:03.895Z,971.5
2023-02-12T05:45:03.894Z,971.51
2023-02-12T05:46:03.907Z,971.56
2023-02-12T05:47:03.843Z,971.56
2023-02-12T05:48:03.816Z,971.57
2023-02-12T05:49:04.287Z,971.51
2023-02-12T05:50:04.271Z,971.59
2023-02-12T05:51:04.282Z,971.61
2023-02-12T05:52:04.234Z,971.62
2023-02-12T05:53:04.221Z,971.63
2023-02-12T05:54:04.201Z,971.65
2023-02-12T05:55:04.184Z,971.73
2023-02-12T05:56:04.171Z,971.69
2023-02-12T05:57:04.146Z,971.73
2023-02-12T05:58:04.157Z,971.73
2023-02-12T05:59:04.130Z,971.76
2023-02-12T06:00:04.095Z,971.76
2023-02-12T06:01:04.083Z,971.8
2023-02-12T06:02:04.070Z,971.8
2023-02-12T06:03:04.056Z,971.77
2023-02-12T06:04:04.205Z,971.81
2023-02-12T06:05:04.016Z,971.79
2023-02-12T06:06:04.003Z,971.79
2023-02-12T06:07:03.974Z,971.79
2023-02-12T06:08:03.956Z,971.8
2023-02-12T06:09:03.943Z,971.78
2023-02-12T06:10:03.918Z,971.76
2023-02-12T06:11:03.911Z,971.76
2023-02-12T06:12:03.888Z,971.74
2023-02-12T06:13:03.879Z,971.78
2023-02-12T06:14:03.878Z,971.75
2023-02-12T06:15:03.838Z,971.81
2023-02-12T06:16:03.925Z,971.78
2023-02-12T06:17:03.811Z,971.82
2023-02-12T06:18:03.791Z,971.75
2023-02-12T06:19:03.768Z,971.73
2023-02-12T06:20:03.747Z,971.8
2023-02-12T06:21:03.732Z,971.79
2023-02-12T06:22:03.713Z,971.78
2023-02-12T06:23:03.696Z,971.82
2023-02-12T06:24:03.679Z,971.81
2023-02-12T06:25:03.661Z,971.76
2023-02-12T06:26:03.645Z,971.79
2023-02-12T06:27:03.625Z,971.8
2023-02-12T06:28:03.624Z,971.8
2023-02-12T06:29:03.590Z,971.82
2023-02-12T06:30:03.607Z,971.74
2023-02-12T06:31:03.631Z,971.75
2023-02-12T06:32:03.786Z,971.77
2023-02-12T06:33:03.528Z,971.73
2023-02-12T06:34:03.523Z,971.78
2023-02-12T06:35:03.492Z,971.82
2023-02-12T06:36:03.477Z,971.79
2023-02-12T06:37:03.464Z,971.81
2023-02-12T06:38:03.443Z,971.81
2023-02-12T06:39:03.436Z,971.81
2023-02-12T06:40:03.407Z,971.85
2023-02-12T06:41:03.396Z,971.83
2023-02-12T06:42:03.378Z,971.83
2023-02-12T06:43:03.355Z,971.82
2023-02-12T06:44:03.338Z,971.87
2023-02-12T06:45:03.323Z,971.86
2023-02-12T06:46:03.334Z,971.84
2023-02-12T06:47:03.294Z,971.88
2023-02-12T06:48:03.272Z,971.88
2023-02-12T06:49:03.253Z,971.84
2023-02-12T06:50:03.236Z,971.88
2023-02-12T06:51:03.318Z,971.85
2023-02-12T06:52:03.646Z,971.86
2023-02-12T06:53:03.183Z,971.88
2023-02-12T06:54:03.172Z,971.92
2023-02-12T06:55:03.149Z,971.91
2023-02-12T06:56:03.139Z,971.9
2023-02-12T06:57:03.115Z,971.98
2023-02-12T06:58:03.102Z,971.96
2023-02-12T06:59:03.084Z,971.95
2023-02-12T07:00:03.065Z,971.98
2023-02-12T07:01:03.065Z,971.97
2023-02-12T07:02:03.062Z,972.01
2023-02-12T07:03:03.014Z,972
2023-02-12T07:04:03.216Z,972.01
2023-02-12T07:05:02.980Z,972.06
2023-02-12T07:06:02.965Z,972.08
2023-02-12T07:07:02.948Z,972.06
2023-02-12T07:08:02.931Z,972.07
2023-02-12T07:09:02.909Z,972.06
2023-02-12T07:10:02.894Z,972.14
2023-02-12T07:11:02.876Z,972.1
2023-02-12T07:12:02.867Z,972.12
2023-02-12T07:13:02.842Z,972.12
2023-02-12T07:14:02.829Z,972.13
2023-02-12T07:15:02.814Z,972.15
2023-02-12T07:16:02.852Z,972.18
2023-02-12T07:17:02.778Z,972.17
2023-02-12T07:18:02.790Z,972.16
2023-02-12T07:19:02.747Z,972.21
2023-02-12T07:20:02.750Z,972.2
2023-02-12T07:21:02.711Z,972.19
2023-02-12T07:22:02.690Z,972.23
2023-02-12T07:23:02.679Z,972.21
2023-02-12T07:24:02.660Z,972.23
2023-02-12T07:25:02.641Z,972.22
2023-02-12T07:26:02.634Z,972.25
2023-02-12T07:27:02.610Z,972.26
2023-02-12T07:28:02.635Z,972.28
2023-02-12T07:29:02.575Z,972.3
2023-02-12T07:30:02.554Z,972.32
2023-02-12T07:31:02.684Z,972.31
2023-02-12T07:32:02.586Z,972.35
2023-02-12T07:33:02.514Z,972.37
2023-02-12T07:34:02.515Z,972.4
2023-02-12T07:35:02.480Z,972.42
2023-02-12T07:36:02.455Z,972.4
2023-02-12T07:37:02.438Z,972.42
2023-02-12T07:38:02.426Z,972.42
2023-02-12T07:39:02.408Z,972.4
2023-02-12T07:40:02.388Z,972.41
2023-02-12T07:41:02.372Z,972.44
2023-02-12T07:42:02.351Z,972.48
2023-02-12T07:43:02.340Z,972.44
2023-02-12T07:44:02.318Z,972.45
2023-02-12T07:45:02.302Z,972.49
2023-02-12T07:46:02.298Z,972.49
2023-02-12T07:47:02.270Z,972.48
2023-02-12T07:48:02.252Z,972.46
2023-02-12T07:49:02.233Z,972.48
2023-02-12T07:50:02.247Z,972.5
2023-02-12T07:51:02.202Z,972.51
2023-02-12T07:52:02.190Z,972.48
2023-02-12T07:53:02.186Z,972.54
2023-02-12T07:54:02.148Z,972.51
2023-02-12T07:55:02.137Z,972.51
2023-02-12T07:56:02.116Z,972.52
2023-02-12T07:57:02.099Z,972.57
2023-02-12T07:58:02.090Z,972.6
2023-02-12T07:59:02.069Z,972.57
2023-02-12T08:00:02.047Z,972.57
2023-02-12T08:01:02.033Z,972.61
2023-02-12T08:02:02.077Z,972.57
2023-02-12T08:03:02.000Z,972.57
2023-02-12T08:04:02.040Z,972.55
2023-02-12T08:05:01.966Z,972.57
2023-02-12T08:06:01.979Z,972.54
2023-02-12T08:07:01.928Z,972.61
2023-02-12T08:08:01.915Z,972.58
2023-02-12T08:09:01.900Z,972.61
2023-02-12T08:10:01.880Z,972.63
2023-02-12T08:11:01.863Z,972.66
2023-02-12T08:12:01.857Z,972.69
2023-02-12T08:13:01.829Z,972.68
2023-02-12T08:14:01.814Z,972.71
2023-02-12T08:15:01.831Z,972.67
2023-02-12T08:16:01.785Z,972.68
2023-02-12T08:17:01.777Z,972.69
2023-02-12T08:18:01.756Z,972.69
2023-02-12T08:19:14.764Z,972.68
2023-02-12T08:20:01.713Z,972.71
2023-02-12T08:21:01.694Z,972.73
2023-02-12T08:22:01.708Z,972.7
2023-02-12T08:23:01.662Z,972.7
2023-02-12T08:24:01.652Z,972.71
2023-02-12T08:25:01.629Z,972.72
2023-02-12T08:26:01.618Z,972.73
2023-02-12T08:27:01.868Z,972.68
2023-02-12T08:28:01.907Z,972.69
2023-02-12T08:29:01.823Z,972.68
2023-02-12T08:30:01.863Z,972.69
2023-02-12T08:31:01.953Z,972.64
2023-02-12T08:32:01.897Z,972.69
2023-02-12T08:33:01.754Z,972.67
2023-02-12T08:34:01.737Z,972.62
2023-02-12T08:35:01.723Z,972.66
2023-02-12T08:36:02.117Z,972.61
2023-02-12T08:37:01.713Z,972.63
2023-02-12T08:38:01.700Z,972.65
2023-02-12T08:39:01.665Z,972.65
2023-02-12T08:40:01.645Z,972.66
2023-02-12T08:41:01.683Z,972.69
2023-02-12T08:42:01.629Z,972.65
2023-02-12T08:43:02.566Z,972.61
2023-02-12T08:44:02.564Z,972.7
2023-02-12T08:45:02.540Z,972.7
2023-02-12T08:46:02.547Z,972.68
2023-02-12T08:47:02.494Z,972.74
2023-02-12T08:48:02.482Z,972.74
2023-02-12T08:49:02.462Z,972.75
2023-02-12T08:50:02.454Z,972.71
2023-02-12T08:51:02.433Z,972.8
2023-02-12T08:52:02.418Z,972.78
2023-02-12T08:53:02.398Z,972.79
2023-02-12T08:54:02.408Z,972.81
2023-02-12T08:55:02.359Z,972.82
2023-02-12T08:56:02.346Z,972.85
2023-02-12T08:57:02.331Z,972.84
2023-02-12T08:58:02.311Z,972.89
2023-02-12T08:59:02.295Z,972.88
2023-02-12T09:00:02.315Z,972.85
2023-02-12T09:01:02.281Z,972.86
2023-02-12T09:02:02.272Z,972.83
2023-02-12T09:03:02.228Z,972.87
2023-02-12T09:04:02.240Z,972.9
2023-02-12T09:05:02.199Z,972.91
2023-02-12T09:06:02.176Z,972.9
2023-02-12T09:07:02.163Z,972.93
2023-02-12T09:08:02.143Z,972.89
2023-02-12T09:09:02.134Z,972.9
2023-02-12T09:10:02.147Z,972.92
2023-02-12T09:11:02.096Z,972.98
2023-02-12T09:12:02.092Z,972.93
2023-02-12T09:13:02.067Z,972.99
2023-02-12T09:14:02.049Z,972.97
2023-02-12T09:15:02.043Z,972.98
2023-02-12T09:16:02.012Z,972.99
2023-02-12T09:17:02.182Z,972.98
2023-02-12T09:18:01.978Z,973.01
2023-02-12T09:19:01.978Z,973.01
2023-02-12T09:20:01.944Z,973.02
2023-02-12T09:21:01.932Z,973.03
2023-02-12T09:22:01.914Z,973.01
2023-02-12T09:23:01.899Z,973.05
2023-02-12T09:24:01.877Z,972.98
2023-02-12T09:25:01.862Z,973.04
2023-02-12T09:26:01.876Z,973.05
2023-02-12T09:27:01.842Z,973.07
2023-02-12T09:28:01.834Z,973.04
2023-02-12T09:29:01.802Z,973.04
2023-02-12T09:30:01.781Z,973.06
2023-02-12T09:31:01.830Z,973.09
2023-02-12T09:32:01.761Z,973.04
2023-02-12T09:33:01.737Z,973.06
2023-02-12T09:34:01.715Z,973.05
2023-02-12T09:35:01.709Z,973.09
2023-02-12T09:36:01.680Z,973.06
2023-02-12T09:37:01.670Z,973.08
2023-02-12T09:38:01.650Z,973.11
2023-02-12T09:39:01.636Z,973.1
2023-02-12T09:40:01.619Z,973.1
2023-02-12T09:41:01.604Z,973.09
2023-02-12T09:42:01.613Z,973.08
2023-02-12T09:43:01.572Z,973.1
2023-02-12T09:44:01.558Z,973.11
2023-02-12T09:45:01.536Z,973.15
2023-02-12T09:46:01.563Z,973.09
2023-02-12T09:47:01.508Z,973.12
2023-02-12T09:48:01.487Z,973.14
2023-02-12T09:49:01.483Z,973.15
2023-02-12T09:50:01.457Z,973.17
2023-02-12T09:51:01.447Z,973.2
2023-02-12T09:52:01.450Z,973.18
2023-02-12T09:53:01.446Z,973.22
2023-02-12T09:54:01.401Z,973.2
2023-02-12T09:55:01.393Z,973.2
2023-02-12T09:56:01.359Z,973.19
2023-02-12T09:57:01.390Z,973.19
2023-02-12T09:58:01.355Z,973.22
2023-02-12T09:59:01.323Z,973.21
2023-02-12T10:00:01.298Z,973.25
2023-02-12T10:01:01.308Z,973.23
2023-02-12T10:02:01.267Z,973.2
2023-02-12T10:03:03.309Z,973.22
2023-02-12T10:04:01.353Z,973.24
2023-02-12T10:05:02.386Z,973.24
2023-02-12T10:06:01.201Z,973.28
2023-02-12T10:07:01.195Z,973.3
2023-02-12T10:08:01.187Z,973.27
2023-02-12T10:09:01.152Z,973.29
2023-02-12T10:10:01.169Z,973.28
2023-02-12T10:11:01.125Z,973.34
2023-02-12T10:12:01.109Z,973.34
2023-02-12T10:13:01.088Z,973.36
2023-02-12T10:14:01.107Z,973.39
2023-02-12T10:15:01.058Z,973.39
2023-02-12T10:16:01.100Z,973.37
2023-02-12T10:17:01.027Z,973.36
2023-02-12T10:18:01.014Z,973.38
2023-02-12T10:19:01.203Z,973.38
2023-02-12T10:20:01.377Z,973.36
2023-02-12T10:21:01.172Z,973.36
2023-02-12T10:22:01.164Z,973.38
2023-02-12T10:23:01.142Z,973.38
2023-02-12T10:24:01.132Z,973.37
2023-02-12T10:25:01.131Z,973.38
2023-02-12T10:26:01.257Z,973.37
2023-02-12T10:27:01.081Z,973.42
2023-02-12T10:28:01.094Z,973.37
2023-02-12T10:29:01.044Z,973.39
2023-02-12T10:30:01.058Z,973.39
2023-02-12T10:31:01.157Z,973.41
2023-02-12T10:32:01.005Z,973.34
2023-02-12T10:33:00.979Z,973.4
2023-02-12T10:34:00.965Z,973.44
2023-02-12T10:35:00.946Z,973.43
2023-02-12T10:36:00.934Z,973.39
2023-02-12T10:37:00.916Z,973.42
2023-02-12T10:38:00.914Z,973.4
2023-02-12T10:39:00.881Z,973.42
2023-02-12T10:40:00.869Z,973.41
2023-02-12T10:41:00.851Z,973.42
2023-02-12T10:42:00.831Z,973.42
2023-02-12T10:43:00.823Z,973.46
2023-02-12T10:44:00.799Z,973.49
2023-02-12T10:45:00.786Z,973.46
2023-02-12T10:46:00.921Z,973.47
2023-02-12T10:47:00.752Z,973.48
2023-02-12T10:48:00.752Z,973.45
2023-02-12T10:49:00.718Z,973.47
2023-02-12T10:50:00.711Z,973.46
2023-02-12T10:51:00.691Z,973.46
2023-02-12T10:52:00.671Z,973.46
2023-02-12T10:53:00.660Z,973.47
2023-02-12T10:54:00.639Z,973.49
2023-02-12T10:55:00.622Z,973.46
2023-02-12T10:56:00.603Z,973.47
2023-02-12T10:57:00.589Z,973.5
2023-02-12T10:58:00.574Z,973.49
2023-02-12T10:59:00.606Z,973.47
2023-02-12T11:00:00.540Z,973.43
2023-02-12T11:01:00.524Z,973.4
2023-02-12T11:02:00.574Z,973.43
2023-02-12T11:03:00.503Z,973.45
2023-02-12T11:04:00.476Z,973.42
2023-02-12T11:05:00.504Z,973.43
2023-02-12T11:06:00.448Z,973.44
2023-02-12T11:07:00.430Z,973.43
2023-02-12T11:08:00.415Z,973.41
2023-02-12T11:09:00.407Z,973.42
2023-02-12T11:10:00.378Z,973.41
2023-02-12T11:11:00.364Z,973.4
2023-02-12T11:12:00.346Z,973.37
2023-02-12T11:13:00.333Z,973.39
2023-02-12T11:14:00.317Z,973.4
2023-02-12T11:15:00.301Z,973.34
2023-02-12T11:16:00.549Z,973.36
2023-02-12T11:17:00.266Z,973.33
2023-02-12T11:18:00.278Z,973.35
2023-02-12T11:19:00.240Z,973.36
2023-02-12T11:20:00.218Z,973.33
2023-02-12T11:21:00.203Z,973.33
2023-02-12T11:22:00.189Z,973.33
2023-02-12T11:23:00.172Z,973.36
2023-02-12T11:24:00.157Z,973.31
2023-02-12T11:25:00.148Z,973.33
2023-02-12T11:26:00.125Z,973.35
2023-02-12T11:27:00.123Z,973.36
2023-02-12T11:28:00.268Z,973.33
2023-02-12T11:29:00.310Z,973.32
2023-02-12T11:30:00.062Z,973.31
2023-02-12T11:31:00.148Z,973.34
2023-02-12T11:32:00.141Z,973.31
2023-02-12T11:33:00.012Z,973.31
2023-02-12T11:34:00.028Z,973.3
2023-02-12T11:34:59.984Z,973.29
2023-02-12T11:36:00.145Z,973.3
2023-02-12T11:36:59.952Z,973.24
2023-02-12T11:37:59.936Z,973.22
2023-02-12T11:38:59.918Z,973.23
2023-02-12T11:39:59.907Z,973.23
2023-02-12T11:41:00.110Z,973.21
2023-02-12T11:41:59.881Z,973.19
2023-02-12T11:42:59.859Z,973.2
2023-02-12T11:43:59.847Z,973.22
2023-02-12T11:44:59.828Z,973.19
2023-02-12T11:45:59.822Z,973.2
2023-02-12T11:46:59.900Z,973.17
2023-02-12T11:47:59.792Z,973.17
2023-02-12T11:48:59.770Z,973.18
2023-02-12T11:49:59.784Z,973.17
2023-02-12T11:50:59.738Z,973.18
2023-02-12T11:51:59.730Z,973.16
2023-02-12T11:52:59.708Z,973.17
2023-02-12T11:53:59.700Z,973.14
2023-02-12T11:54:59.693Z,973.15
2023-02-12T11:56:00.150Z,973.13
2023-02-12T11:56:59.647Z,973.17
2023-02-12T11:57:59.631Z,973.17
2023-02-12T11:58:59.616Z,973.12
2023-02-12T11:59:59.599Z,973.15
2023-02-12T12:00:59.584Z,973.09
2023-02-12T12:01:59.639Z,973.08
2023-02-12T12:02:59.597Z,973.12
2023-02-12T12:03:59.542Z,973.09
2023-02-12T12:04:59.530Z,973.09
2023-02-12T12:05:59.543Z,973.09
2023-02-12T12:06:59.493Z,973.08
2023-02-12T12:07:59.477Z,973.09
2023-02-12T12:08:59.462Z,973.06
2023-02-12T12:09:59.447Z,973.04
2023-02-12T12:10:59.446Z,973
2023-02-12T12:11:59.421Z,973
2023-02-12T12:12:59.400Z,972.98
2023-02-12T12:13:59.389Z,972.98
2023-02-12T12:14:59.368Z,972.97
2023-02-12T12:15:59.353Z,972.99
2023-02-12T12:16:59.339Z,972.97
2023-02-12T12:17:59.330Z,972.98
2023-02-12T12:18:59.310Z,972.97
2023-02-12T12:19:59.297Z,972.97
2023-02-12T12:20:59.277Z,972.97
2023-02-12T12:21:59.290Z,972.96
2023-02-12T12:22:59.254Z,972.98
2023-02-12T12:23:59.235Z,972.99
2023-02-12T12:24:59.218Z,973.02
2023-02-12T12:25:59.234Z,973.05
2023-02-12T12:26:59.189Z,973.03
2023-02-12T12:27:59.173Z,973.04
2023-02-12T12:28:59.166Z,973.04
2023-02-12T12:29:59.146Z,973.07
2023-02-12T12:30:59.145Z,973.04
2023-02-12T12:31:59.229Z,973.04
2023-02-12T12:32:59.104Z,973.09
2023-02-12T12:33:59.086Z,973.05
2023-02-12T12:34:59.068Z,973.04
2023-02-12T12:35:59.268Z,973.07
2023-02-12T12:36:59.041Z,973.08
2023-02-12T12:37:59.054Z,973.03
2023-02-12T12:38:59.021Z,973.08
2023-02-12T12:39:58.993Z,973.06
2023-02-12T12:40:58.980Z,973.06
2023-02-12T12:41:58.964Z,973.07
2023-02-12T12:42:58.968Z,973.05
2023-02-12T12:43:58.933Z,973.03
2023-02-12T12:44:58.923Z,973.02
2023-02-12T12:45:59.311Z,973.01
2023-02-12T12:46:58.888Z,972.97
2023-02-12T12:47:58.881Z,973